Time,TemperatureF,DewpointF,PressureIn,WindDirection,WindDirectionDegrees,WindSpeedMPH,WindSpeedGustMPH,Humidity,HourlyPrecipIn,Conditions,Clouds,dailyrainin,SoftwareType,DateUTC
2013-03-02 00:14:00,48.6,48.0,30.23,ESE,104,4.0,8.0,97,0.05,,,0.01,weatherlink.com 1.10,2013-03-02 08:14:00,
2013-03-02 00:29:00,48.3,48.0,30.23,ESE,110,3.0,8.0,97,0.06,,,0.03,weatherlink.com 1.10,2013-03-02 08:29:00,
2013-03-02 00:44:00,48.2,48.0,30.23,ESE,112,1.0,2.0,98,0.07,,,0.05,weatherlink.com 1.10,2013-03-02 08:44:00,
2013-03-02 00:59:00,48.2,48.0,30.23,ESE,112,0.0,1.0,98,0.07,,,0.06,weatherlink.com 1.10,2013-03-02 08:59:00,
2013-03-02 01:14:00,48.2,48.0,30.23,ESE,112,0.0,2.0,98,0.06,,,0.07,weatherlink.com 1.10,2013-03-02 09:14:00,
2013-03-02 01:29:00,48.3,48.0,30.23,ESE,112,0.0,1.0,98,0.05,,,0.08,weatherlink.com 1.10,2013-03-02 09:29:00,
2013-03-02 01:44:00,48.3,48.0,30.22,ESE,112,0.0,2.0,98,0.04,,,0.09,weatherlink.com 1.10,2013-03-02 09:44:00,
2013-03-02 01:59:00,48.2,48.0,30.22,ESE,112,0.0,0.0,98,0.03,,,0.09,weatherlink.com 1.10,2013-03-02 09:59:00,
2013-03-02 02:14:00,48.2,48.0,30.21,ESE,112,1.0,2.0,98,0.03,,,0.10,weatherlink.com 1.10,2013-03-02 10:14:00,
2013-03-02 02:29:00,48.1,48.0,30.20,ESE,112,0.0,3.0,98,0.02,,,0.10,weatherlink.com 1.10,2013-03-02 10:29:00,
2013-03-02 02:44:00,48.1,48.0,30.20,ESE,105,0.0,3.0,98,0.01,,,0.10,weatherlink.com 1.10,2013-03-02 10:44:00,
2013-03-02 02:59:00,48.1,48.0,30.19,ESE,102,2.0,5.0,98,0.01,,,0.10,weatherlink.com 1.10,2013-03-02 10:59:00,
2013-03-02 03:14:00,48.1,48.0,30.18,East,100,3.0,3.0,98,0.00,,,0.10,weatherlink.com 1.10,2013-03-02 11:14:00,
2013-03-02 03:29:00,48.1,48.0,30.18,East,95,0.0,3.0,98,0.00,,,0.10,weatherlink.com 1.10,2013-03-02 11:29:00,
2013-03-02 03:44:00,48.1,48.0,30.17,East,91,2.0,3.0,98,0.00,,,0.10,weatherlink.com 1.10,2013-03-02 11:44:00,
2013-03-02 03:59:00,48.1,48.0,30.16,East,93,2.0,5.0,98,0.00,,,0.10,weatherlink.com 1.10,2013-03-02 11:59:00,
2013-03-02 04:14:00,48.0,48.0,30.16,East,93,2.0,5.0,98,0.00,,,0.10,weatherlink.com 1.10,2013-03-02 12:14:00,
2013-03-02 04:29:00,47.8,47.0,30.16,ENE,75,2.0,4.0,98,0.00,,,0.10,weatherlink.com 1.10,2013-03-02 12:29:00,
2013-03-02 04:44:00,47.7,47.0,30.17,East,83,2.0,6.0,98,0.00,,,0.10,weatherlink.com 1.10,2013-03-02 12:44:00,
2013-03-02 04:59:00,47.7,47.0,30.16,East,91,2.0,4.0,98,0.01,,,0.11,weatherlink.com 1.10,2013-03-02 12:59:00,
2013-03-02 05:14:00,47.7,47.0,30.15,East,85,3.0,5.0,98,0.01,,,0.11,weatherlink.com 1.10,2013-03-02 13:14:00,
2013-03-02 05:29:00,47.6,47.0,30.15,East,101,0.0,5.0,98,0.01,,,0.11,weatherlink.com 1.10,2013-03-02 13:29:00,
2013-03-02 05:44:00,47.6,47.0,30.14,ENE,75,0.0,5.0,98,0.01,,,0.11,weatherlink.com 1.10,2013-03-02 13:44:00,
2013-03-02 05:59:00,47.6,47.0,30.14,ESE,114,2.0,5.0,98,0.00,,,0.11,weatherlink.com 1.10,2013-03-02 13:59:00,
2013-03-02 06:14:00,47.7,47.0,30.14,ESE,109,0.0,6.0,98,0.00,,,0.11,weatherlink.com 1.10,2013-03-02 14:14:00,
2013-03-02 06:29:00,47.7,47.0,30.13,SW,226,0.0,2.0,98,0.00,,,0.11,weatherlink.com 1.10,2013-03-02 14:29:00,
2013-03-02 06:44:00,47.7,47.0,30.12,SE,125,0.0,4.0,98,0.00,,,0.11,weatherlink.com 1.10,2013-03-02 14:44:00,
2013-03-02 06:59:00,47.6,47.0,30.12,East,97,2.0,4.0,98,0.00,,,0.11,weatherlink.com 1.10,2013-03-02 14:59:00,
2013-03-02 07:14:00,47.7,47.0,30.12,ESE,102,3.0,3.0,98,0.00,,,0.11,weatherlink.com 1.10,2013-03-02 15:14:00,
2013-03-02 07:29:00,47.6,47.0,30.12,East,90,2.0,5.0,98,0.00,,,0.11,weatherlink.com 1.10,2013-03-02 15:29:00,
2013-03-02 07:44:00,47.8,47.0,30.11,ESE,104,2.0,5.0,98,0.00,,,0.11,weatherlink.com 1.10,2013-03-02 15:44:00,
2013-03-02 07:59:00,47.9,47.0,30.11,ESE,104,0.0,2.0,98,0.00,,,0.11,weatherlink.com 1.10,2013-03-02 15:59:00,
2013-03-02 08:14:00,48.0,48.0,30.11,ESE,104,0.0,2.0,98,0.00,,,0.11,weatherlink.com 1.10,2013-03-02 16:14:00,
2013-03-02 08:29:00,48.1,48.0,30.10,ESE,104,0.0,2.0,98,0.00,,,0.11,weatherlink.com 1.10,2013-03-02 16:29:00,
2013-03-02 08:44:00,48.2,48.0,30.10,ESE,104,0.0,3.0,98,0.00,,,0.11,weatherlink.com 1.10,2013-03-02 16:44:00,
2013-03-02 08:59:00,48.4,48.0,30.10,ESE,112,0.0,1.0,98,0.00,,,0.11,weatherlink.com 1.10,2013-03-02 16:59:00,
2013-03-02 09:14:00,48.5,48.0,30.09,WSW,253,0.0,5.0,98,0.00,,,0.11,weatherlink.com 1.10,2013-03-02 17:14:00,
2013-03-02 09:29:00,48.8,48.0,30.09,South,174,1.0,3.0,98,0.00,,,0.11,weatherlink.com 1.10,2013-03-02 17:29:00,
2013-03-02 09:44:00,49.4,49.0,30.09,SW,233,3.0,5.0,98,0.00,,,0.11,weatherlink.com 1.10,2013-03-02 17:44:00,
2013-03-02 10:00:00,49.4,49.0,30.08,SW,216,1.0,5.0,98,0.00,,,0.11,weatherlink.com 1.10,2013-03-02 18:00:00,
2013-03-02 10:15:00,49.6,49.0,30.08,SW,214,1.0,4.0,98,0.00,,,0.11,weatherlink.com 1.10,2013-03-02 18:15:00,
2013-03-02 10:30:00,49.8,49.0,30.08,WSW,249,4.0,5.0,98,0.00,,,0.11,weatherlink.com 1.10,2013-03-02 18:30:00,
2013-03-02 10:45:00,49.4,49.0,30.07,WSW,240,0.0,7.0,97,0.00,,,0.11,weatherlink.com 1.10,2013-03-02 18:45:00,
2013-03-02 11:00:00,49.8,49.0,30.07,WSW,241,4.0,6.0,97,0.00,,,0.11,weatherlink.com 1.10,2013-03-02 19:00:00,
2013-03-02 11:15:00,50.3,50.0,30.06,East,92,2.0,6.0,97,0.00,,,0.11,weatherlink.com 1.10,2013-03-02 19:15:00,
2013-03-02 11:30:00,50.9,50.0,30.05,SSE,147,0.0,5.0,96,0.00,,,0.11,weatherlink.com 1.10,2013-03-02 19:30:00,
2013-03-02 11:45:00,51.3,50.0,30.05,SSW,199,2.0,9.0,95,0.00,,,0.11,weatherlink.com 1.10,2013-03-02 19:45:00,
2013-03-02 12:00:00,51.9,50.0,30.05,South,169,1.0,8.0,92,0.00,,,0.11,weatherlink.com 1.10,2013-03-02 20:00:00,
2013-03-02 12:15:00,51.9,49.0,30.04,South,189,6.0,8.0,91,0.00,,,0.11,weatherlink.com 1.10,2013-03-02 20:15:00,
2013-03-02 12:30:00,50.9,48.0,30.04,WSW,243,6.0,14.0,91,0.00,,,0.11,weatherlink.com 1.10,2013-03-02 20:30:00,
2013-03-02 12:45:00,49.9,48.0,30.04,SW,231,5.0,12.0,92,0.00,,,0.11,weatherlink.com 1.10,2013-03-02 20:45:00,
2013-03-02 13:00:00,49.1,47.0,30.04,SW,219,5.0,13.0,91,0.00,,,0.11,weatherlink.com 1.10,2013-03-02 21:00:00,
2013-03-02 13:15:00,49.0,46.0,30.03,SW,236,5.0,11.0,90,0.00,,,0.11,weatherlink.com 1.10,2013-03-02 21:15:00,
2013-03-02 13:30:00,48.3,45.0,30.05,West,271,10.0,18.0,88,0.00,,,0.11,weatherlink.com 1.10,2013-03-02 21:30:00,
2013-03-02 13:45:00,46.7,44.0,30.05,West,270,10.0,17.0,91,0.01,,,0.12,weatherlink.com 1.10,2013-03-02 21:45:00,
2013-03-02 14:00:00,46.7,45.0,30.06,West,262,9.0,13.0,92,0.01,,,0.12,weatherlink.com 1.10,2013-03-02 22:00:00,
2013-03-02 14:15:00,46.9,43.0,30.06,West,261,8.0,18.0,86,0.01,,,0.12,weatherlink.com 1.10,2013-03-02 22:15:00,
2013-03-02 14:30:00,46.9,42.0,30.06,West,274,12.0,15.0,84,0.01,,,0.12,weatherlink.com 1.10,2013-03-02 22:30:00,
2013-03-02 14:45:00,46.6,42.0,30.05,WSW,256,10.0,19.0,85,0.01,,,0.13,weatherlink.com 1.10,2013-03-02 22:45:00,
2013-03-02 15:00:00,45.5,43.0,30.06,WSW,239,9.0,17.0,89,0.01,,,0.13,weatherlink.com 1.10,2013-03-02 23:00:00,
2013-03-02 15:15:00,44.8,42.0,30.07,SW,228,8.0,16.0,89,0.01,,,0.13,weatherlink.com 1.10,2013-03-02 23:15:00,
2013-03-02 15:30:00,44.8,42.0,30.07,WSW,247,8.0,17.0,88,0.01,,,0.13,weatherlink.com 1.10,2013-03-02 23:30:00,
2013-03-02 15:45:00,44.8,42.0,30.06,WSW,242,9.0,20.0,88,0.00,,,0.13,weatherlink.com 1.10,2013-03-02 23:45:00,
2013-03-02 16:00:00,45.2,42.0,30.06,WSW,239,12.0,18.0,88,0.00,,,0.13,weatherlink.com 1.10,2013-03-03 00:00:00,
2013-03-02 16:15:00,45.7,42.0,30.06,WSW,241,12.0,20.0,86,0.00,,,0.13,weatherlink.com 1.10,2013-03-03 00:15:00,
2013-03-02 16:30:00,46.1,42.0,30.06,WSW,247,16.0,19.0,84,0.00,,,0.13,weatherlink.com 1.10,2013-03-03 00:30:00,
2013-03-02 16:45:00,46.9,41.0,30.06,WSW,250,9.0,22.0,81,0.00,,,0.13,weatherlink.com 1.10,2013-03-03 00:45:00,
2013-03-02 17:00:00,47.5,40.0,30.07,WSW,241,11.0,22.0,76,0.00,,,0.13,weatherlink.com 1.10,2013-03-03 01:00:00,
2013-03-02 17:15:00,47.4,40.0,30.07,WSW,243,14.0,22.0,74,0.00,,,0.13,weatherlink.com 1.10,2013-03-03 01:15:00,
2013-03-02 17:30:00,47.0,39.0,30.08,WSW,256,13.0,19.0,74,0.00,,,0.13,weatherlink.com 1.10,2013-03-03 01:30:00,
2013-03-02 17:45:00,46.5,39.0,30.09,WSW,253,11.0,19.0,74,0.00,,,0.13,weatherlink.com 1.10,2013-03-03 01:45:00,
2013-03-02 18:00:00,45.9,38.0,30.10,WSW,239,9.0,20.0,74,0.00,,,0.13,weatherlink.com 1.10,2013-03-03 02:00:00,
2013-03-02 18:16:00,45.2,38.0,30.10,WSW,246,5.0,12.0,77,0.00,,,0.13,weatherlink.com 1.10,2013-03-03 02:16:00,
2013-03-02 18:31:00,44.6,39.0,30.11,WSW,254,5.0,12.0,80,0.00,,,0.13,weatherlink.com 1.10,2013-03-03 02:31:00,
2013-03-02 18:46:00,43.8,39.0,30.11,West,264,10.0,12.0,83,0.00,,,0.13,weatherlink.com 1.10,2013-03-03 02:46:00,
2013-03-02 19:01:00,43.6,39.0,30.12,WSW,253,5.0,10.0,83,0.00,,,0.13,weatherlink.com 1.10,2013-03-03 03:01:00,
2013-03-02 19:16:00,43.4,38.0,30.13,SW,214,5.0,10.0,82,0.00,,,0.13,weatherlink.com 1.10,2013-03-03 03:16:00,
2013-03-02 19:31:00,43.3,37.0,30.14,West,264,5.0,11.0,79,0.00,,,0.13,weatherlink.com 1.10,2013-03-03 03:31:00,
2013-03-02 19:46:00,43.0,36.0,30.14,WSW,238,7.0,13.0,77,0.00,,,0.13,weatherlink.com 1.10,2013-03-03 03:46:00,
2013-03-02 20:01:00,42.7,36.0,30.14,SW,235,9.0,13.0,78,0.00,,,0.13,weatherlink.com 1.10,2013-03-03 04:01:00,
2013-03-02 20:16:00,42.8,36.0,30.14,West,264,9.0,14.0,76,0.00,,,0.13,weatherlink.com 1.10,2013-03-03 04:16:00,
2013-03-02 20:31:00,42.7,36.0,30.16,WSW,254,12.0,14.0,76,0.00,,,0.13,weatherlink.com 1.10,2013-03-03 04:31:00,
2013-03-02 20:46:00,42.5,35.0,30.16,WSW,255,8.0,12.0,76,0.00,,,0.13,weatherlink.com 1.10,2013-03-03 04:46:00,
2013-03-02 21:01:00,42.3,36.0,30.16,WSW,255,6.0,12.0,77,0.00,,,0.13,weatherlink.com 1.10,2013-03-03 05:01:00,
2013-03-02 21:16:00,42.3,35.0,30.17,WSW,245,7.0,11.0,76,0.00,,,0.13,weatherlink.com 1.10,2013-03-03 05:16:00,
2013-03-02 21:31:00,41.7,35.0,30.17,West,264,1.0,6.0,78,0.00,,,0.13,weatherlink.com 1.10,2013-03-03 05:31:00,
2013-03-02 21:46:00,40.8,35.0,30.17,West,264,0.0,0.0,81,0.00,,,0.13,weatherlink.com 1.10,2013-03-03 05:46:00,
2013-03-02 22:01:00,41.1,35.0,30.17,West,267,5.0,7.0,79,0.00,,,0.13,weatherlink.com 1.10,2013-03-03 06:01:00,
2013-03-02 22:16:00,40.7,35.0,30.17,WSW,255,3.0,5.0,80,0.00,,,0.13,weatherlink.com 1.10,2013-03-03 06:16:00,
2013-03-02 22:31:00,40.6,36.0,30.17,WSW,246,5.0,7.0,82,0.00,,,0.13,weatherlink.com 1.10,2013-03-03 06:31:00,
2013-03-02 22:46:00,40.8,36.0,30.17,WSW,241,3.0,8.0,82,0.00,,,0.13,weatherlink.com 1.10,2013-03-03 06:46:00,
2013-03-02 23:01:00,40.6,36.0,30.17,WSW,240,3.0,7.0,82,0.00,,,0.13,weatherlink.com 1.10,2013-03-03 07:01:00,
2013-03-02 23:16:00,40.5,36.0,30.17,West,268,3.0,7.0,84,0.00,,,0.13,weatherlink.com 1.10,2013-03-03 07:16:00,
2013-03-02 23:31:00,40.4,36.0,30.17,SW,222,2.0,6.0,83,0.00,,,0.13,weatherlink.com 1.10,2013-03-03 07:31:00,
2013-03-02 23:46:00,40.5,36.0,30.17,SSW,208,4.0,7.0,83,0.00,,,0.13,weatherlink.com 1.10,2013-03-03 07:46:00,